Time;durP1;ratioP1;P1;durP2;ratioP2;P2;SDS_P1;SDS_P2;PMS_P1;PMS_P2;Temp;Humidity;BMP_temperature;BMP_pressure;BME280_temperature;BME280_humidity;BME280_pressure;Samples;Min_cycle;Max_cycle;Signal;HPM_P1;HPM_P2
2022/06/19 00:00:53;;;;;;;11.30;11.00;;;23.20;99.90;;;;;;5038492;28;20235;-80
2022/06/19 00:03:29;;;;;;;11.20;10.90;;;23.20;99.90;;;;;;5038581;28;20249;-79
2022/06/19 00:05:58;;;;;;;11.10;10.80;;;23.20;99.90;;;;;;5039529;28;20255;-79
2022/06/19 00:08:26;;;;;;;11.15;10.85;;;23.20;99.90;;;;;;5035577;28;20294;-80
2022/06/19 00:10:56;;;;;;;11.10;10.80;;;23.20;99.90;;;;;;5035665;28;20240;-78
2022/06/19 00:13:24;;;;;;;11.20;10.90;;;23.20;99.90;;;;;;5035932;28;20236;-80
2022/06/19 00:15:51;;;;;;;11.13;10.82;;;23.10;99.90;;;;;;5041976;28;20235;-81
2022/06/19 00:18:19;;;;;;;11.07;10.77;;;23.10;99.90;;;;;;5045840;28;20228;-80
2022/06/19 00:20:47;;;;;;;11.05;10.75;;;23.10;99.90;;;;;;5040548;28;20236;-80
2022/06/19 00:23:15;;;;;;;11.00;10.70;;;23.10;99.90;;;;;;5040620;28;20223;-79
2022/06/19 00:25:43;;;;;;;11.00;10.70;;;23.10;99.90;;;;;;5041558;28;20232;-81
2022/06/19 00:28:13;;;;;;;11.07;10.77;;;23.00;99.90;;;;;;5047314;28;20232;-80
2022/06/19 00:30:41;;;;;;;11.02;10.73;;;23.00;99.90;;;;;;5048973;28;20254;-80
2022/06/19 00:33:08;;;;;;;10.90;10.60;;;23.00;99.90;;;;;;5051666;28;20239;-79
2022/06/19 00:35:36;;;;;;;11.15;10.85;;;23.00;99.90;;;;;;5049101;28;20286;-80
2022/06/19 00:38:04;;;;;;;10.98;10.68;;;23.00;99.90;;;;;;5045956;28;20255;-80
2022/06/19 00:40:33;;;;;;;11.10;10.80;;;23.00;99.90;;;;;;5041881;28;20278;-80
2022/06/19 00:43:01;;;;;;;10.90;10.60;;;23.00;99.90;;;;;;5040776;28;20228;-80
2022/06/19 00:45:36;;;;;;;10.90;10.60;;;23.00;99.90;;;;;;5040222;28;20227;-80
2022/06/19 00:48:12;;;;;;;10.90;10.60;;;23.00;99.90;;;;;;5040249;28;20231;-80
2022/06/19 00:50:41;;;;;;;11.20;10.90;;;22.90;99.90;;;;;;5040128;28;20239;-80
2022/06/19 00:53:14;;;;;;;11.10;10.80;;;22.90;99.90;;;;;;5039489;28;20242;-80
2022/06/19 00:55:47;;;;;;;10.82;10.52;;;22.80;99.90;;;;;;5040164;28;20290;-80
2022/06/19 00:58:21;;;;;;;11.02;10.73;;;22.80;99.90;;;;;;5039469;28;20239;-80
2022/06/19 01:00:57;;;;;;;10.93;10.63;;;22.70;99.90;;;;;;5038624;28;20366;-79
2022/06/19 01:03:31;;;;;;;11.00;10.70;;;22.70;99.90;;;;;;5038951;28;20278;-79
2022/06/19 01:05:59;;;;;;;10.90;10.60;;;22.70;99.90;;;;;;5038949;28;20290;-79
2022/06/19 01:08:27;;;;;;;11.13;10.82;;;22.60;99.90;;;;;;5039378;28;20231;-79
2022/06/19 01:10:55;;;;;;;10.98;10.68;;;22.60;99.90;;;;;;5039418;28;20324;-79
2022/06/19 01:13:27;;;;;;;11.18;10.88;;;22.50;99.90;;;;;;5038752;28;20242;-80
2022/06/19 01:15:56;;;;;;;11.10;10.80;;;22.50;99.90;;;;;;5038614;28;20230;-79
2022/06/19 01:18:25;;;;;;;11.10;10.80;;;22.50;99.90;;;;;;5039649;28;20263;-79
2022/06/19 01:20:58;;;;;;;10.95;10.65;;;22.50;99.90;;;;;;5038515;28;20228;-79
2022/06/19 01:23:35;;;;;;;11.00;10.70;;;22.40;99.90;;;;;;5038442;28;20254;-79
2022/06/19 01:26:05;;;;;;;11.00;10.70;;;22.40;99.90;;;;;;5037673;28;20231;-80
2022/06/19 01:28:46;;;;;;;11.02;10.73;;;22.40;99.90;;;;;;5038053;28;20228;-80
2022/06/19 01:31:16;;;;;;;11.25;10.95;;;22.40;99.90;;;;;;5038354;28;20242;-79
2022/06/19 01:33:47;;;;;;;11.25;10.95;;;22.30;99.90;;;;;;5038496;28;20223;-79
2022/06/19 01:36:19;;;;;;;10.93;10.63;;;22.20;99.90;;;;;;5038253;28;20331;-80
2022/06/19 01:38:50;;;;;;;11.18;10.88;;;22.20;99.90;;;;;;5040128;28;20226;-80
2022/06/19 01:41:24;;;;;;;11.07;10.77;;;22.10;99.90;;;;;;5042686;28;20227;-79
2022/06/19 01:43:54;;;;;;;11.20;10.90;;;22.10;99.90;;;;;;5043565;28;20270;-79
2022/06/19 01:46:23;;;;;;;11.20;10.90;;;22.10;99.90;;;;;;5045271;28;20234;-80
2022/06/19 01:48:51;;;;;;;11.18;10.88;;;22.00;99.90;;;;;;5041667;28;20227;-78
2022/06/19 01:51:19;;;;;;;10.90;10.60;;;22.00;99.90;;;;;;5040824;28;20262;-77
2022/06/19 01:53:51;;;;;;;11.00;10.70;;;22.00;99.90;;;;;;5040657;28;20251;-78
2022/06/19 01:56:20;;;;;;;10.98;10.68;;;21.90;99.90;;;;;;5040754;28;20330;-78
2022/06/19 01:58:54;;;;;;;10.90;10.60;;;21.90;99.90;;;;;;5040795;28;20231;-78
2022/06/19 02:01:22;;;;;;;10.73;10.43;;;21.90;99.90;;;;;;5040658;28;20223;-79
2022/06/19 02:03:53;;;;;;;11.00;10.70;;;21.90;99.90;;;;;;5040535;28;20282;-79
2022/06/19 02:06:25;;;;;;;10.90;10.60;;;21.80;99.90;;;;;;5040895;28;20227;-78
2022/06/19 02:08:53;;;;;;;10.88;10.57;;;21.80;99.90;;;;;;5041717;28;20282;-79
2022/06/19 02:11:23;;;;;;;10.98;10.68;;;21.70;99.90;;;;;;5040493;28;20231;-79
2022/06/19 02:13:51;;;;;;;10.77;10.48;;;21.70;99.90;;;;;;5040116;28;20231;-79
2022/06/19 02:16:21;;;;;;;10.80;10.50;;;21.70;99.90;;;;;;5040035;28;20327;-78
2022/06/19 02:18:52;;;;;;;10.75;10.45;;;21.70;99.90;;;;;;5041758;28;20239;-79
2022/06/19 02:21:34;;;;;;;10.70;10.40;;;21.60;99.90;;;;;;5040836;28;20236;-78
2022/06/19 02:24:02;;;;;;;11.00;10.70;;;21.60;99.90;;;;;;5040906;28;20254;-79
2022/06/19 02:26:31;;;;;;;10.73;10.43;;;21.50;99.90;;;;;;5040758;28;20314;-78
2022/06/19 02:28:59;;;;;;;10.95;10.65;;;21.50;99.90;;;;;;5040866;28;20284;-79
2022/06/19 02:31:27;;;;;;;10.95;10.65;;;21.40;99.90;;;;;;5041382;28;20231;-79
2022/06/19 02:34:01;;;;;;;11.07;10.77;;;21.40;99.90;;;;;;5040754;28;20322;-79
2022/06/19 02:36:42;;;;;;;11.10;10.80;;;21.30;99.90;;;;;;5041397;28;20227;-78
2022/06/19 02:39:27;;;;;;;10.95;10.65;;;21.30;99.90;;;;;;5041893;28;20297;-79
2022/06/19 02:42:16;;;;;;;10.98;10.68;;;21.20;99.90;;;;;;5041804;28;20688;-79
2022/06/19 02:44:44;;;;;;;10.90;10.60;;;21.20;99.90;;;;;;5041242;28;20306;-79
2022/06/19 02:47:12;;;;;;;11.23;10.88;;;21.20;99.90;;;;;;5041342;28;20322;-80
2022/06/19 02:49:40;;;;;;;11.00;10.70;;;21.20;99.90;;;;;;5041004;28;20304;-79
2022/06/19 02:52:11;;;;;;;10.88;10.57;;;21.20;99.90;;;;;;5039692;28;20247;-79
2022/06/19 02:54:39;;;;;;;11.00;10.70;;;21.10;99.90;;;;;;5039531;28;20235;-78
2022/06/19 02:57:12;;;;;;;11.40;11.00;;;21.10;99.90;;;;;;5039942;28;20231;-78
2022/06/19 02:59:42;;;;;;;10.90;10.60;;;21.10;99.90;;;;;;5039873;28;20227;-78
2022/06/19 03:02:11;;;;;;;11.38;10.98;;;21.10;99.90;;;;;;5041474;28;20263;-81
2022/06/19 03:04:45;;;;;;;11.20;10.88;;;21.10;99.90;;;;;;5040640;28;20258;-79
2022/06/19 03:07:12;;;;;;;11.05;10.75;;;21.10;99.90;;;;;;5041095;28;20262;-79
2022/06/19 03:09:40;;;;;;;10.90;10.60;;;21.10;99.90;;;;;;5041366;28;20306;-79
2022/06/19 03:12:12;;;;;;;11.10;10.80;;;21.10;99.90;;;;;;5040856;28;20270;-80
2022/06/19 03:14:39;;;;;;;11.02;10.73;;;21.10;99.90;;;;;;5040556;28;20243;-80
2022/06/19 03:17:07;;;;;;;11.00;10.70;;;21.10;99.90;;;;;;5041326;28;20237;-80
2022/06/19 03:19:35;;;;;;;10.90;10.60;;;21.10;99.90;;;;;;5041244;28;20286;-79
2022/06/19 03:22:03;;;;;;;10.80;10.50;;;21.00;99.90;;;;;;5041259;28;20286;-79
2022/06/19 03:24:34;;;;;;;10.70;10.40;;;21.00;99.90;;;;;;5041239;28;20223;-80
2022/06/19 03:27:11;;;;;;;10.90;10.60;;;21.00;99.90;;;;;;5040793;28;20244;-80
2022/06/19 03:29:39;;;;;;;10.70;10.40;;;20.90;99.90;;;;;;5043699;28;20235;-79
2022/06/19 03:32:10;;;;;;;10.60;10.30;;;20.80;99.90;;;;;;5042127;28;20234;-79
2022/06/19 03:34:38;;;;;;;10.70;10.40;;;20.80;99.90;;;;;;5039345;28;20270;-79
2022/06/19 03:37:06;;;;;;;10.63;10.32;;;20.80;99.90;;;;;;5047136;28;20235;-79
2022/06/19 03:39:34;;;;;;;10.70;10.40;;;20.80;99.90;;;;;;5047417;28;20254;-79
2022/06/19 03:42:02;;;;;;;10.40;10.10;;;20.80;99.90;;;;;;5048707;28;20235;-79
2022/06/19 03:44:31;;;;;;;10.68;10.38;;;20.80;99.90;;;;;;5042549;28;20314;-80
2022/06/19 03:46:58;;;;;;;10.77;10.48;;;20.80;99.90;;;;;;5042369;28;21106;-79
2022/06/19 03:49:27;;;;;;;10.55;10.25;;;20.80;99.90;;;;;;5041989;28;20231;-79
2022/06/19 03:51:54;;;;;;;10.52;10.23;;;20.70;99.90;;;;;;5041002;28;20792;-79
2022/06/19 03:54:22;;;;;;;10.48;10.18;;;20.70;99.90;;;;;;5040843;28;20235;-80
2022/06/19 03:56:50;;;;;;;10.50;10.20;;;20.80;99.90;;;;;;5040714;28;20686;-79
2022/06/19 03:59:18;;;;;;;10.60;10.30;;;20.80;99.90;;;;;;5041176;28;20232;-79
2022/06/19 04:01:47;;;;;;;10.50;10.20;;;20.80;99.90;;;;;;5040187;28;20235;-79
2022/06/19 04:04:14;;;;;;;10.90;10.60;;;20.80;99.90;;;;;;5039761;28;21144;-80
2022/06/19 04:06:43;;;;;;;10.80;10.50;;;20.80;99.90;;;;;;5040447;28;20285;-79
2022/06/19 04:09:15;;;;;;;10.65;10.35;;;20.70;99.90;;;;;;5040547;28;20285;-79
2022/06/19 04:11:43;;;;;;;10.80;10.50;;;20.70;99.90;;;;;;5041609;28;20279;-80
2022/06/19 04:14:11;;;;;;;10.70;10.40;;;20.70;99.90;;;;;;5040382;28;20219;-79
2022/06/19 04:16:40;;;;;;;10.70;10.40;;;20.70;99.90;;;;;;5039914;28;20235;-80
2022/06/19 04:19:09;;;;;;;10.80;10.50;;;20.60;99.90;;;;;;5040401;28;20311;-80
2022/06/19 04:21:43;;;;;;;10.70;10.40;;;20.60;99.90;;;;;;5039788;28;20255;-80
2022/06/19 04:24:14;;;;;;;10.70;10.40;;;20.60;99.90;;;;;;5039965;28;20236;-80
2022/06/19 04:26:42;;;;;;;10.80;10.50;;;20.60;99.90;;;;;;5039916;28;20239;-80
2022/06/19 04:29:13;;;;;;;10.80;10.50;;;20.60;99.90;;;;;;5040125;28;20315;-80
2022/06/19 04:31:41;;;;;;;10.70;10.40;;;20.60;99.90;;;;;;5039907;28;20231;-80
2022/06/19 04:34:11;;;;;;;10.60;10.30;;;20.70;99.90;;;;;;5039182;28;20239;-80
2022/06/19 04:36:39;;;;;;;10.63;10.32;;;20.80;99.90;;;;;;5039134;28;20238;-80
2022/06/19 04:39:07;;;;;;;10.70;10.40;;;20.80;99.90;;;;;;5039292;28;20253;-80
2022/06/19 04:41:38;;;;;;;10.68;10.38;;;20.90;99.90;;;;;;5039552;28;20273;-80
2022/06/19 04:44:08;;;;;;;10.80;10.50;;;21.00;99.90;;;;;;5039717;28;20314;-79
2022/06/19 04:46:36;;;;;;;10.60;10.30;;;21.10;99.90;;;;;;5034413;28;20658;-80
2022/06/19 04:49:04;;;;;;;10.65;10.35;;;21.20;99.90;;;;;;5035799;28;20251;-79
2022/06/19 04:51:38;;;;;;;10.60;10.30;;;21.30;99.90;;;;;;5019417;28;20328;-80
2022/06/19 04:54:06;;;;;;;10.70;10.40;;;21.30;99.90;;;;;;5019765;28;20573;-79
2022/06/19 04:56:34;;;;;;;10.80;10.50;;;21.40;99.90;;;;;;5019372;28;20369;-80
2022/06/19 04:59:04;;;;;;;10.60;10.30;;;21.50;99.90;;;;;;5018066;28;20243;-79
2022/06/19 05:01:35;;;;;;;10.80;10.50;;;21.60;99.90;;;;;;5018497;28;20286;-79
2022/06/19 05:04:07;;;;;;;10.77;10.48;;;21.70;99.90;;;;;;5036751;28;20237;-78
2022/06/19 05:06:37;;;;;;;10.90;10.60;;;21.80;99.90;;;;;;5039712;28;20254;-79
2022/06/19 05:09:05;;;;;;;10.65;10.35;;;21.90;99.90;;;;;;5042439;28;20243;-78
2022/06/19 05:11:34;;;;;;;10.80;10.50;;;22.00;99.90;;;;;;5049702;28;20220;-79
2022/06/19 05:14:03;;;;;;;10.93;10.63;;;22.10;99.90;;;;;;5052200;28;21092;-78
2022/06/19 05:16:34;;;;;;;10.90;10.60;;;22.20;99.90;;;;;;5041276;28;20240;-79
2022/06/19 05:19:03;;;;;;;10.90;10.60;;;22.30;99.90;;;;;;5026513;28;20259;-79
2022/06/19 05:21:33;;;;;;;10.85;10.55;;;22.40;99.90;;;;;;5026986;28;20228;-78
2022/06/19 05:24:02;;;;;;;10.95;10.65;;;22.50;99.90;;;;;;5024063;28;20224;-79
2022/06/19 05:26:33;;;;;;;10.77;10.48;;;22.60;99.90;;;;;;5024271;28;20232;-79
2022/06/19 05:29:02;;;;;;;10.80;10.50;;;22.70;99.90;;;;;;5024341;28;20236;-80
2022/06/19 05:31:30;;;;;;;10.88;10.57;;;22.80;99.90;;;;;;5024630;28;20267;-79
2022/06/19 05:33:58;;;;;;;10.65;10.35;;;22.90;99.90;;;;;;5059745;22;20257;-81
2022/06/19 05:36:28;;;;;;;10.75;10.45;;;23.00;99.90;;;;;;5075098;28;20230;-81
2022/06/19 05:38:55;;;;;;;10.70;10.40;;;23.10;99.90;;;;;;5076061;28;20231;-80
2022/06/19 05:41:34;;;;;;;10.50;10.20;;;23.20;99.90;;;;;;5073327;28;20294;-81
2022/06/19 05:44:03;;;;;;;10.60;10.30;;;23.30;99.90;;;;;;5072460;28;20252;-81
2022/06/19 05:46:32;;;;;;;10.68;10.38;;;23.40;99.90;;;;;;5074000;28;20231;-81
2022/06/19 05:49:02;;;;;;;10.57;10.27;;;23.50;99.90;;;;;;5056630;28;20239;-81
2022/06/19 05:51:31;;;;;;;10.80;10.50;;;23.60;99.90;;;;;;5060754;28;20264;-81
2022/06/19 05:54:01;;;;;;;10.68;10.38;;;23.70;99.90;;;;;;5052379;28;20231;-81
2022/06/19 05:56:33;;;;;;;10.52;10.23;;;23.80;99.90;;;;;;5051775;28;20303;-82
2022/06/19 05:59:03;;;;;;;10.43;10.13;;;23.90;99.90;;;;;;5050790;28;20234;-81
2022/06/19 06:01:31;;;;;;;10.73;10.43;;;23.90;99.90;;;;;;5047827;28;20221;-82
2022/06/19 06:04:00;;;;;;;10.88;10.57;;;24.10;99.90;;;;;;5046159;28;20307;-81
2022/06/19 06:09:15;;;;;;;10.60;10.30;;;24.20;99.90;;;;;;5064620;28;20227;-81
2022/06/19 06:14:31;;;;;;;10.70;10.40;;;24.40;99.90;;;;;;5067496;28;20234;-82
2022/06/19 06:17:01;;;;;;;10.77;10.48;;;24.40;99.90;;;;;;5070881;28;20246;-82
2022/06/19 06:19:30;;;;;;;10.70;10.40;;;24.50;99.90;;;;;;5067819;28;20329;-81
2022/06/19 06:21:59;;;;;;;10.60;10.30;;;24.70;99.90;;;;;;5066884;28;20226;-81
2022/06/19 06:24:31;;;;;;;10.70;10.40;;;24.80;99.90;;;;;;5065880;28;20227;-82
2022/06/19 06:27:10;;;;;;;10.60;10.30;;;25.00;99.90;;;;;;5067166;28;20295;-81
2022/06/19 06:29:39;;;;;;;10.50;10.20;;;25.10;99.90;;;;;;5067378;28;20245;-82
2022/06/19 06:32:08;;;;;;;10.52;10.23;;;25.10;99.90;;;;;;5065740;28;20223;-82
2022/06/19 06:34:37;;;;;;;10.63;10.32;;;25.20;99.90;;;;;;5065675;28;20289;-82
2022/06/19 06:37:06;;;;;;;10.45;10.15;;;25.30;99.90;;;;;;5066758;28;20251;-82
2022/06/19 06:39:36;;;;;;;10.65;10.35;;;25.40;99.90;;;;;;5066654;28;20259;-82
2022/06/19 06:42:14;;;;;;;10.43;10.13;;;25.50;99.90;;;;;;5066560;28;20253;-82
2022/06/19 06:44:44;;;;;;;10.55;10.25;;;25.60;99.90;;;;;;5065618;28;20227;-83
2022/06/19 06:47:13;;;;;;;10.57;10.27;;;25.60;99.90;;;;;;5064165;28;20273;-83
2022/06/19 06:49:43;;;;;;;10.52;10.23;;;25.70;99.90;;;;;;5063607;28;20229;-83
2022/06/19 06:52:12;;;;;;;10.50;10.20;;;25.70;99.90;;;;;;5064116;28;20274;-83
2022/06/19 06:54:42;;;;;;;10.38;10.07;;;25.80;99.90;;;;;;5064304;28;20266;-83
2022/06/19 06:57:14;;;;;;;10.70;10.40;;;25.90;99.90;;;;;;5065783;28;20295;-83
2022/06/19 06:59:41;;;;;;;10.52;10.23;;;26.00;99.90;;;;;;5064823;28;20235;-83
2022/06/19 07:02:11;;;;;;;10.48;10.18;;;26.10;99.90;;;;;;5055006;28;20223;-83
2022/06/19 07:04:40;;;;;;;10.60;10.30;;;26.20;99.90;;;;;;5044878;28;20242;-83
2022/06/19 07:07:09;;;;;;;10.85;10.55;;;26.30;99.90;;;;;;5044895;28;20285;-83
2022/06/19 07:09:38;;;;;;;10.73;10.43;;;26.40;99.90;;;;;;5043999;28;20240;-83
2022/06/19 07:12:08;;;;;;;10.88;10.57;;;26.50;99.90;;;;;;5043923;28;20234;-83
2022/06/19 07:14:46;;;;;;;10.75;10.45;;;26.60;99.90;;;;;;5044358;28;20235;-83
2022/06/19 07:17:15;;;;;;;10.70;10.40;;;26.70;99.90;;;;;;5044741;28;20295;-83
2022/06/19 07:19:45;;;;;;;11.30;11.00;;;26.80;99.90;;;;;;5046712;28;20499;-84
2022/06/19 07:22:15;;;;;;;10.93;10.63;;;26.90;99.90;;;;;;5047074;28;20247;-85
2022/06/19 07:24:44;;;;;;;10.93;10.63;;;27.10;99.90;;;;;;5046189;28;20224;-85
2022/06/19 07:27:13;;;;;;;10.90;10.60;;;27.30;99.90;;;;;;5044668;28;20251;-85
2022/06/19 07:29:53;;;;;;;10.95;10.65;;;27.50;99.90;;;;;;5044203;28;20272;-85
2022/06/19 07:32:21;;;;;;;10.90;10.60;;;27.60;99.90;;;;;;5044479;28;20226;-85
2022/06/19 07:34:50;;;;;;;11.07;10.77;;;27.80;99.90;;;;;;5043342;28;20223;-85
2022/06/19 07:37:20;;;;;;;10.95;10.65;;;27.90;99.90;;;;;;5042022;28;20254;-86
2022/06/19 07:39:50;;;;;;;11.18;10.88;;;28.00;99.90;;;;;;5042472;28;20300;-85
2022/06/19 07:42:19;;;;;;;10.80;10.50;;;28.10;99.90;;;;;;5041844;28;20274;-84
2022/06/19 07:44:58;;;;;;;10.80;10.50;;;28.30;99.90;;;;;;5041853;28;20236;-86
2022/06/19 07:50:15;;;;;;;10.90;10.60;;;28.40;99.90;;;;;;5042782;28;20215;-84
2022/06/19 07:52:46;;;;;;;11.02;10.73;;;28.60;99.90;;;;;;5041660;28;20276;-87
2022/06/19 07:55:16;;;;;;;10.93;10.63;;;28.70;99.90;;;;;;5041638;28;20243;-85
2022/06/19 07:57:44;;;;;;;11.02;10.73;;;28.80;99.90;;;;;;5043718;28;20232;-84
2022/06/19 08:00:20;;;;;;;11.00;10.70;;;29.00;99.90;;;;;;5045463;28;20235;-83
2022/06/19 08:02:50;;;;;;;11.00;10.70;;;29.10;99.90;;;;;;5059312;28;20249;-85
2022/06/19 08:05:19;;;;;;;11.00;10.70;;;29.20;99.90;;;;;;5070922;28;20215;-85
2022/06/19 08:07:50;;;;;;;10.93;10.63;;;29.40;99.90;;;;;;5064704;28;20223;-86
2022/06/19 08:10:26;;;;;;;10.80;10.50;;;29.60;99.90;;;;;;5066481;28;20230;-84
2022/06/19 08:12:57;;;;;;;11.10;10.80;;;29.60;99.90;;;;;;5062153;28;20227;-86
2022/06/19 08:15:34;;;;;;;10.65;10.35;;;29.70;99.90;;;;;;5022823;28;20236;-91
2022/06/19 08:18:04;;;;;;;10.50;10.20;;;29.90;99.90;;;;;;5021257;28;20231;-88
2022/06/19 08:20:33;;;;;;;10.40;10.10;;;30.10;99.90;;;;;;5021408;28;20258;-87
2022/06/19 08:23:05;;;;;;;10.60;10.30;;;30.20;99.90;;;;;;5021812;28;20228;-90
2022/06/19 08:25:34;;;;;;;10.60;10.30;;;30.40;99.90;;;;;;5060651;28;20321;-84
2022/06/19 08:28:04;;;;;;;10.60;10.30;;;30.60;99.90;;;;;;5053537;28;20231;-87
2022/06/19 08:30:42;;;;;;;10.70;10.40;;;30.60;99.90;;;;;;5040500;28;20242;-86
2022/06/19 08:33:11;;;;;;;10.55;10.25;;;30.70;99.90;;;;;;5040344;28;20283;-88
2022/06/19 08:38:37;;;;;;;11.00;10.70;;;31.00;99.90;;;;;;5058027;28;20238;-88
2022/06/19 08:44:57;;;;;;;10.88;10.57;;;31.50;99.90;;;;;;5055059;28;20318;-88
2022/06/19 08:48:18;;;;;;;10.90;10.60;;;31.80;99.90;;;;;;5039739;28;20299;-89
2022/06/19 08:50:55;;;;;;;11.00;10.70;;;31.90;99.90;;;;;;5027216;28;20231;-88
2022/06/19 08:54:00;;;;;;;10.80;10.50;;;32.10;99.90;;;;;;5051417;28;20261;-89
2022/06/19 08:56:37;;;;;;;11.05;10.75;;;32.40;99.90;;;;;;5062034;28;20222;-87
2022/06/19 09:02:12;;;;;;;11.00;10.70;;;32.90;99.90;;;;;;5058956;28;20247;-89
2022/06/19 09:07:57;;;;;;;10.77;10.48;;;33.10;99.90;;;;;;5048411;28;20228;-88
2022/06/19 09:10:41;;;;;;;10.75;10.45;;;33.10;99.90;;;;;;5041406;28;20247;-87
2022/06/19 09:13:55;;;;;;;10.90;10.60;;;33.40;99.90;;;;;;5029949;28;20228;-87
2022/06/19 09:16:34;;;;;;;10.75;10.45;;;33.70;99.90;;;;;;5031051;28;20262;-85
2022/06/19 09:19:14;;;;;;;10.88;10.57;;;33.70;99.90;;;;;;5038374;28;20296;-85
2022/06/19 09:22:08;;;;;;;11.00;10.70;;;33.80;99.90;;;;;;5039431;28;20219;-83
2022/06/19 09:25:11;;;;;;;11.20;10.90;;;33.90;99.90;;;;;;5039207;28;20245;-86
2022/06/19 09:30:46;;;;;;;10.80;10.50;;;34.30;99.90;;;;;;5038320;28;20219;-86
2022/06/19 09:33:25;;;;;;;10.88;10.57;;;34.30;99.90;;;;;;5040961;28;20282;-85
2022/06/19 09:36:11;;;;;;;11.00;10.70;;;34.20;99.90;;;;;;5040071;28;20257;-86
2022/06/19 09:38:58;;;;;;;11.00;10.70;;;34.10;99.90;;;;;;5040673;28;20216;-84
2022/06/19 09:41:36;;;;;;;10.80;10.50;;;34.40;99.90;;;;;;5040633;28;20227;-81
2022/06/19 09:44:15;;;;;;;11.18;10.88;;;34.40;99.90;;;;;;5040625;28;20227;-84
2022/06/19 09:46:54;;;;;;;11.30;11.00;;;34.60;99.90;;;;;;5037208;28;20262;-84
2022/06/19 09:49:33;;;;;;;11.27;10.98;;;35.00;99.90;;;;;;5040390;28;20290;-83
2022/06/19 09:52:09;;;;;;;11.52;11.13;;;35.30;99.90;;;;;;5040271;28;20254;-84
2022/06/19 09:54:50;;;;;;;11.68;11.27;;;35.30;99.90;;;;;;5038865;28;20259;-84
2022/06/19 09:57:26;;;;;;;11.70;11.30;;;35.20;99.90;;;;;;5039577;28;20239;-83
2022/06/19 10:00:04;;;;;;;11.40;11.05;;;35.00;99.90;;;;;;5040476;28;20231;-83
2022/06/19 10:02:43;;;;;;;11.20;10.90;;;35.10;99.90;;;;;;5043242;28;20270;-86
2022/06/19 10:05:30;;;;;;;11.10;10.80;;;35.00;99.90;;;;;;5043463;28;20227;-86
2022/06/19 10:08:10;;;;;;;11.00;10.70;;;35.10;99.90;;;;;;5044937;28;20227;-89
2022/06/19 10:13:41;;;;;;;10.70;10.40;;;35.10;99.90;;;;;;5042172;28;20219;-85
2022/06/19 10:16:37;;;;;;;10.98;10.68;;;35.00;99.90;;;;;;5042754;28;20222;-87
2022/06/19 10:19:18;;;;;;;11.00;10.70;;;35.30;99.90;;;;;;5043372;28;20637;-88
2022/06/19 10:25:02;;;;;;;11.43;11.10;;;35.60;99.90;;;;;;5042212;28;20314;-85
2022/06/19 10:27:41;;;;;;;11.45;11.10;;;35.70;99.90;;;;;;5043692;28;20220;-85
2022/06/19 10:30:18;;;;;;;11.45;11.15;;;35.70;99.90;;;;;;5042872;28;20259;-86
2022/06/19 10:33:21;;;;;;;11.15;10.85;;;35.80;99.90;;;;;;5043329;28;20223;-85
2022/06/19 10:38:55;;;;;;;10.95;10.65;;;35.60;99.90;;;;;;5022706;28;20262;-86
2022/06/19 10:44:40;;;;;;;11.07;10.77;;;36.30;99.90;;;;;;5054469;28;20231;-86
2022/06/19 10:47:25;;;;;;;11.10;10.80;;;36.30;99.90;;;;;;5044863;28;20227;-85
2022/06/19 10:50:05;;;;;;;11.20;10.90;;;36.30;99.90;;;;;;5043462;28;20227;-84
2022/06/19 10:52:53;;;;;;;10.88;10.57;;;36.40;99.90;;;;;;5047930;28;20313;-85
2022/06/19 10:55:38;;;;;;;11.10;10.80;;;36.30;99.90;;;;;;5061447;28;20333;-86
2022/06/19 10:58:17;;;;;;;10.70;10.40;;;36.20;99.90;;;;;;5062672;28;20253;-86
2022/06/19 11:00:53;;;;;;;10.95;10.65;;;36.00;99.90;;;;;;5062884;28;20231;-86
2022/06/19 11:06:28;;;;;;;11.10;10.80;;;36.00;99.90;;;;;;5061124;28;20215;-84
2022/06/19 11:09:05;;;;;;;11.02;10.73;;;36.30;99.90;;;;;;5069559;28;20283;-83
2022/06/19 11:11:36;;;;;;;11.13;10.82;;;36.70;99.90;;;;;;5064941;28;20239;-86
2022/06/19 11:14:14;;;;;;;11.30;11.00;;;36.60;98.60;;;;;;5051241;28;20251;-87
2022/06/19 11:19:49;;;;;;;11.00;10.70;;;36.30;96.30;;;;;;5040299;28;20319;-87
2022/06/19 11:22:37;;;;;;;10.77;10.48;;;36.40;95.80;;;;;;5041723;28;20221;-86
2022/06/19 11:25:40;;;;;;;10.88;10.57;;;36.50;96.00;;;;;;5041643;28;20255;-87
2022/06/19 11:28:21;;;;;;;11.02;10.73;;;36.60;96.40;;;;;;5041667;28;20238;-86
2022/06/19 11:30:57;;;;;;;11.13;10.82;;;36.80;95.80;;;;;;5041912;28;20335;-88
2022/06/19 11:33:43;;;;;;;11.00;10.70;;;36.90;95.10;;;;;;5041373;28;20227;-86
2022/06/19 11:36:39;;;;;;;10.95;10.65;;;37.10;95.10;;;;;;5082976;22;20241;-82
2022/06/19 11:39:35;;;;;;;11.10;10.80;;;37.20;96.00;;;;;;5079107;28;20257;-82
2022/06/19 11:42:32;;;;;;;11.15;10.85;;;37.00;95.80;;;;;;5080276;28;20234;-81
2022/06/19 11:45:06;;;;;;;11.23;10.93;;;37.10;95.90;;;;;;5078009;28;20239;-82
2022/06/19 11:47:42;;;;;;;11.32;11.02;;;37.30;95.50;;;;;;5060830;28;20235;-83
2022/06/19 11:50:41;;;;;;;10.90;10.60;;;37.20;95.60;;;;;;5060561;28;20242;-85
2022/06/19 11:53:21;;;;;;;11.15;10.85;;;36.90;95.80;;;;;;5059945;28;20275;-84
2022/06/19 11:55:51;;;;;;;11.30;11.00;;;36.90;96.40;;;;;;5060660;28;20317;-86
2022/06/19 11:58:31;;;;;;;11.00;10.70;;;37.00;96.90;;;;;;5060729;28;20258;-83
2022/06/19 12:01:06;;;;;;;10.98;10.68;;;37.40;96.30;;;;;;5060242;28;20227;-82
2022/06/19 12:03:48;;;;;;;10.98;10.68;;;37.60;96.30;;;;;;5060278;28;20233;-85
2022/06/19 12:06:24;;;;;;;11.50;11.20;;;37.70;95.20;;;;;;5064301;28;20446;-83
2022/06/19 12:09:01;;;;;;;11.18;10.88;;;37.90;95.10;;;;;;5070564;28;20316;-87
2022/06/19 12:11:40;;;;;;;11.02;10.73;;;38.00;94.70;;;;;;5061547;28;20720;-86
2022/06/19 12:14:18;;;;;;;10.75;10.45;;;38.00;94.60;;;;;;5061114;28;20245;-86
2022/06/19 12:16:47;;;;;;;10.70;10.40;;;37.70;94.70;;;;;;5059951;28;20230;-86
2022/06/19 12:19:26;;;;;;;11.15;10.85;;;37.60;94.00;;;;;;5059265;28;20227;-85
2022/06/19 12:22:25;;;;;;;11.00;10.70;;;37.60;93.70;;;;;;5059101;28;20227;-87
2022/06/19 12:25:10;;;;;;;10.95;10.65;;;37.60;93.60;;;;;;5058351;28;20242;-85
2022/06/19 12:27:49;;;;;;;10.95;10.65;;;37.40;93.90;;;;;;5059165;28;20227;-86
2022/06/19 12:30:26;;;;;;;10.90;10.60;;;37.50;94.10;;;;;;5058873;28;20234;-87
2022/06/19 12:32:57;;;;;;;10.90;10.60;;;37.50;94.60;;;;;;5058587;28;20282;-87
2022/06/19 12:35:34;;;;;;;11.18;10.88;;;37.40;93.80;;;;;;5058225;28;20226;-85
2022/06/19 12:38:13;;;;;;;11.40;11.10;;;37.40;94.00;;;;;;5059043;28;20415;-88
2022/06/19 12:41:00;;;;;;;11.00;10.70;;;37.50;94.40;;;;;;5059075;28;20222;-87
2022/06/19 12:43:49;;;;;;;11.02;10.73;;;37.90;94.50;;;;;;5069281;28;20333;-86
2022/06/19 12:46:32;;;;;;;11.07;10.77;;;38.00;94.30;;;;;;5062454;28;20238;-88
2022/06/19 12:49:20;;;;;;;10.82;10.52;;;37.90;93.20;;;;;;5062884;28;20223;-85
2022/06/19 12:51:59;;;;;;;10.93;10.63;;;37.90;93.70;;;;;;5060785;28;20234;-88
2022/06/19 12:55:04;;;;;;;11.20;10.90;;;37.80;92.70;;;;;;5059868;28;20227;-87
2022/06/19 12:58:10;;;;;;;10.95;10.65;;;37.70;92.80;;;;;;5057365;28;20238;-87
2022/06/19 13:00:46;;;;;;;10.88;10.57;;;37.90;92.80;;;;;;5059187;28;20258;-87
2022/06/19 13:03:42;;;;;;;10.98;10.68;;;38.00;93.50;;;;;;5069240;28;20241;-87
2022/06/19 13:06:38;;;;;;;11.02;10.73;;;38.30;92.70;;;;;;5072157;28;20242;-88
2022/06/19 13:09:42;;;;;;;10.93;10.63;;;38.20;92.50;;;;;;5071300;28;20273;-88
2022/06/19 13:12:22;;;;;;;10.93;10.63;;;38.30;92.30;;;;;;5067336;28;20218;-87
2022/06/19 13:15:16;;;;;;;10.90;10.60;;;38.50;92.50;;;;;;5058591;28;20241;-87
2022/06/19 13:17:54;;;;;;;10.90;10.60;;;38.50;92.20;;;;;;5058328;28;20249;-87
2022/06/19 13:20:41;;;;;;;11.00;10.70;;;38.50;92.40;;;;;;5057951;28;20257;-87
2022/06/19 13:23:21;;;;;;;11.20;10.90;;;38.50;92.10;;;;;;5058587;28;20302;-88
2022/06/19 13:26:08;;;;;;;11.10;10.80;;;38.30;91.70;;;;;;5072115;28;20238;-86
2022/06/19 13:28:48;;;;;;;11.25;10.95;;;38.10;92.10;;;;;;5076608;28;20245;-83
2022/06/19 13:31:23;;;;;;;11.50;11.10;;;38.10;92.70;;;;;;5077242;28;20211;-85
2022/06/19 13:34:21;;;;;;;11.32;11.02;;;38.10;92.90;;;;;;5084007;28;20221;-84
2022/06/19 13:36:59;;;;;;;11.30;11.00;;;38.30;92.40;;;;;;5075315;28;20257;-85
2022/06/19 13:39:35;;;;;;;11.13;10.82;;;38.50;91.90;;;;;;5078378;28;20241;-83
2022/06/19 13:42:34;;;;;;;11.07;10.77;;;38.90;92.10;;;;;;5066176;28;20240;-86
2022/06/19 13:45:37;;;;;;;11.23;10.93;;;39.10;92.20;;;;;;5042010;28;20222;-86
2022/06/19 13:48:15;;;;;;;11.32;11.02;;;39.30;91.60;;;;;;5039764;28;20320;-86